Accueil
METAR-TAF:

METAR-TAF

Aéroports :

Pian Rosa, Italie

latitude: 45-56N, longitude: 007-42E, altitude: 3480 m

Observation

Le bulletin a été fait il y a 1 heure et 2 minutes, à 17:55 UTC
Vent 13 kt de nord-est
Température -4°C
Humidité 100%
Pression 1018 hPa

METAR: LIMH 121755Z AUTO 04013KT //// M04/M04 Q1018

Heure: 20:57 (18:57 UTC)


TAF: absent

Observations et prévisions météorologiques de plus de 4000 aéroports (messages METAR et TAF).

Les stations disponibles sont représentées par des disques jaunes et rouges sur la carte.

Passer la souris dessus pour voir le nom de la station.

Cliquer dessus pour voir les observations et prévisions météorologiques.

Pour changer de carte: cliquez sur les boutons verts avec une croix noire pour zoomer, sur le bouton vert avec un tiret pour effectuer un zoom arrière, ou sur les flèches vertes pour les cartes adjacentes.


METAR-TAF: